Time;durP1;ratioP1;P1;durP2;ratioP2;P2;SDS_P1;SDS_P2;PMS_P1;PMS_P2;Temp;Humidity;BMP_temperature;BMP_pressure;BME280_temperature;BME280_humidity;BME280_pressure;Samples;Min_cycle;Max_cycle;Signal;HPM_P1;HPM_P2
2022/09/25 00:00:42;;;;;;;14.25;10.25;;;;;;;8.41;98.69;98235.38;4183114;28;20476;-70
2022/09/25 00:02:42;;;;;;;12.05;10.15;;;;;;;8.42;97.26;98231.47;4186300;28;20370;-69
2022/09/25 00:04:43;;;;;;;11.40;9.48;;;;;;;8.40;98.42;98242.06;4185751;28;20063;-69
2022/09/25 00:06:46;;;;;;;14.35;9.80;;;;;;;8.43;97.06;98247.63;4185958;28;20071;-69
2022/09/25 00:08:47;;;;;;;13.95;10.00;;;;;;;8.43;97.16;98244.88;4185016;28;20469;-69
2022/09/25 00:10:49;;;;;;;17.02;10.02;;;;;;;8.37;97.50;98240.84;4185540;28;20044;-69
2022/09/25 00:12:50;;;;;;;14.02;10.57;;;;;;;8.32;98.88;98230.09;4185942;28;20369;-69
2022/09/25 00:14:51;;;;;;;17.20;11.52;;;;;;;8.25;99.24;98235.50;4185554;28;20055;-69
2022/09/25 00:16:51;;;;;;;13.57;10.10;;;;;;;8.19;100.00;98228.69;4185350;28;20711;-69
2022/09/25 00:21:13;;;;;;;13.77;10.20;;;;;;;8.10;100.00;98231.69;4186756;28;20039;-70
2022/09/25 00:23:14;;;;;;;11.68;9.70;;;;;;;8.09;100.00;98232.06;4186158;28;20032;-70
2022/09/25 00:25:15;;;;;;;17.02;10.68;;;;;;;8.07;100.00;98240.69;4186458;28;20048;-69
2022/09/25 00:27:17;;;;;;;14.10;10.40;;;;;;;8.04;100.00;98232.38;4185868;28;20488;-69
2022/09/25 00:29:19;;;;;;;12.57;9.38;;;;;;;8.00;100.00;98235.06;4184691;28;20036;-69
2022/09/25 00:31:24;;;;;;;13.32;10.20;;;;;;;8.00;100.00;98234.28;4185365;28;20326;-69
2022/09/25 00:33:24;;;;;;;16.45;9.52;;;;;;;7.97;100.00;98233.06;4185678;28;20040;-71
2022/09/25 00:35:25;;;;;;;13.65;10.13;;;;;;;7.95;99.49;98226.31;4185241;28;20051;-71
2022/09/25 00:37:27;;;;;;;13.77;9.95;;;;;;;7.95;99.44;98218.84;4185145;28;20048;-70
2022/09/25 00:39:27;;;;;;;12.20;9.20;;;;;;;7.96;97.91;98219.66;4181996;28;20041;-70
2022/09/25 00:41:30;;;;;;;14.48;10.13;;;;;;;8.03;97.52;98217.81;4186362;28;20042;-71
2022/09/25 00:44:02;;;;;;;16.70;10.60;;;;;;;8.03;97.93;98220.56;4186152;28;20060;-69
2022/09/25 00:46:08;;;;;;;14.60;12.40;;;;;;;7.85;100.00;98214.72;4179904;28;20056;-69
2022/09/25 00:48:13;;;;;;;15.60;11.25;;;;;;;7.80;100.00;98219.75;4185065;28;20040;-70
2022/09/25 00:50:35;;;;;;;16.42;11.57;;;;;;;7.77;100.00;98232.28;4184969;28;20025;-70
2022/09/25 00:52:35;;;;;;;19.98;12.10;;;;;;;7.74;100.00;98222.00;4183686;28;20535;-70
2022/09/25 00:54:40;;;;;;;16.23;10.77;;;;;;;7.76;99.98;98225.19;4184528;28;20044;-71
2022/09/25 00:56:43;;;;;;;14.70;9.98;;;;;;;7.74;99.01;98221.22;4186392;28;20317;-69
2022/09/25 00:58:43;;;;;;;14.38;11.23;;;;;;;7.72;99.43;98227.09;4183673;28;20439;-70
2022/09/25 01:00:44;;;;;;;14.45;10.15;;;;;;;7.80;99.06;98225.28;4185668;28;20052;-72
2022/09/25 01:02:52;;;;;;;13.57;10.07;;;;;;;7.83;98.85;98219.00;4183802;28;20044;-70
2022/09/25 01:04:56;;;;;;;13.85;9.95;;;;;;;7.87;98.34;98219.88;4185762;28;20491;-71
2022/09/25 01:06:57;;;;;;;14.52;10.00;;;;;;;7.91;97.01;98214.44;4185181;28;20041;-70
2022/09/25 01:08:58;;;;;;;15.98;10.60;;;;;;;7.93;96.73;98218.41;4184568;28;20053;-70
2022/09/25 01:10:58;;;;;;;13.60;11.07;;;;;;;7.86;97.12;98219.09;4185474;28;20051;-70
2022/09/25 01:12:59;;;;;;;15.70;11.05;;;;;;;7.74;99.41;98222.00;4184952;28;20115;-71
2022/09/25 01:15:00;;;;;;;15.38;11.27;;;;;;;7.64;99.90;98224.56;4183879;28;20486;-71
2022/09/25 01:17:09;;;;;;;14.55;11.40;;;;;;;7.59;100.00;98220.94;4184985;28;20049;-71
2022/09/25 01:19:32;;;;;;;14.85;10.82;;;;;;;7.53;100.00;98219.66;4184475;28;20480;-71
2022/09/25 01:21:57;;;;;;;12.52;10.25;;;;;;;7.49;100.00;98215.22;4185534;28;20052;-71
2022/09/25 01:24:23;;;;;;;14.45;10.68;;;;;;;7.48;100.00;98219.16;4173894;28;20053;-71
2022/09/25 01:26:38;;;;;;;13.35;9.82;;;;;;;7.44;100.00;98216.31;4184007;28;20085;-71
2022/09/25 01:29:13;;;;;;;13.55;11.32;;;;;;;7.44;100.00;98221.03;4183798;28;20432;-71
2022/09/25 01:31:41;;;;;;;13.65;10.43;;;;;;;7.48;100.00;98219.16;4185095;28;20502;-71
2022/09/25 01:33:53;;;;;;;14.68;11.52;;;;;;;7.46;100.00;98221.47;4187074;28;20048;-71
2022/09/25 01:36:05;;;;;;;13.25;10.73;;;;;;;7.42;100.00;98223.34;4187924;28;20045;-71
2022/09/25 01:38:14;;;;;;;14.40;11.55;;;;;;;7.38;100.00;98223.28;4187741;28;20489;-71
2022/09/25 01:40:14;;;;;;;16.75;11.05;;;;;;;7.41;100.00;98221.75;4187713;28;20075;-71
2022/09/25 01:42:25;;;;;;;17.25;11.23;;;;;;;7.45;100.00;98223.44;4175929;28;20040;-71
2022/09/25 01:44:45;;;;;;;12.88;10.50;;;;;;;7.53;100.00;98218.84;4187494;28;20051;-71
2022/09/25 01:46:49;;;;;;;17.25;10.75;;;;;;;7.54;100.00;98220.47;4187877;28;20493;-71
2022/09/25 01:48:57;;;;;;;13.45;10.32;;;;;;;7.51;100.00;98215.66;4187500;28;20456;-71
2022/09/25 01:51:02;;;;;;;15.68;11.48;;;;;;;7.53;100.00;98213.34;4186386;28;20044;-71
2022/09/25 01:53:09;;;;;;;15.05;10.85;;;;;;;7.51;100.00;98210.16;4187817;28;20353;-71
2022/09/25 01:55:26;;;;;;;13.75;11.05;;;;;;;7.53;100.00;98213.34;4184469;28;20059;-71
2022/09/25 01:57:43;;;;;;;16.05;10.10;;;;;;;7.50;100.00;98216.81;4188212;28;20051;-71
2022/09/25 01:59:50;;;;;;;14.13;10.50;;;;;;;7.48;100.00;98214.44;4187276;28;20292;-71
2022/09/25 02:01:52;;;;;;;15.35;11.00;;;;;;;7.43;100.00;98211.97;4170700;28;20079;-71
2022/09/25 02:04:02;;;;;;;14.77;10.70;;;;;;;7.42;100.00;98206.84;4185753;28;20865;-71
2022/09/25 02:06:08;;;;;;;13.65;10.15;;;;;;;7.44;100.00;98207.25;4188543;28;20046;-71
2022/09/25 02:08:17;;;;;;;15.63;11.15;;;;;;;7.45;100.00;98204.16;4187656;28;20086;-71
2022/09/25 02:10:26;;;;;;;16.73;12.02;;;;;;;7.46;100.00;98213.22;4186946;28;20430;-71
2022/09/25 02:12:39;;;;;;;14.85;11.70;;;;;;;7.45;100.00;98212.44;4187358;28;20039;-71
2022/09/25 02:14:47;;;;;;;15.25;10.60;;;;;;;7.50;100.00;98211.31;4187102;28;20078;-71
2022/09/25 02:16:53;;;;;;;14.35;10.20;;;;;;;7.53;100.00;98211.41;4186843;28;20500;-71
2022/09/25 02:21:21;;;;;;;14.63;11.32;;;;;;;7.52;100.00;98203.50;4186270;28;20086;-71
2022/09/25 02:23:25;;;;;;;15.07;10.73;;;;;;;7.47;100.00;98201.84;4187090;28;20917;-71
2022/09/25 02:25:35;;;;;;;16.13;11.68;;;;;;;7.42;100.00;98207.63;4184326;28;20037;-71
2022/09/25 02:27:36;;;;;;;16.10;10.95;;;;;;;7.42;100.00;98204.09;4187352;28;20400;-71
2022/09/25 02:29:37;;;;;;;14.75;10.50;;;;;;;7.41;100.00;98213.50;4187041;28;20245;-71
2022/09/25 02:31:43;;;;;;;17.95;12.95;;;;;;;7.37;100.00;98210.69;4187559;28;20048;-71
2022/09/25 02:33:43;;;;;;;16.48;12.35;;;;;;;7.32;100.00;98206.25;4187556;28;20056;-71
2022/09/25 02:35:44;;;;;;;19.17;12.80;;;;;;;7.30;100.00;98208.59;4187032;28;20353;-71
2022/09/25 02:37:44;;;;;;;21.58;14.02;;;;;;;7.27;100.00;98205.75;4187237;28;20409;-71
2022/09/25 02:39:52;;;;;;;14.73;11.32;;;;;;;7.26;100.00;98207.72;4187013;28;20091;-71
2022/09/25 02:44:49;;;;;;;18.92;12.75;;;;;;;7.25;100.00;98199.81;4186358;28;20236;-71
2022/09/25 02:47:17;;;;;;;13.43;11.23;;;;;;;7.21;100.00;98199.75;4187948;28;20045;-71
2022/09/25 02:49:28;;;;;;;19.00;12.70;;;;;;;7.18;100.00;98200.47;4186438;28;20056;-71
2022/09/25 02:51:56;;;;;;;16.42;11.70;;;;;;;7.17;100.00;98209.09;4186967;28;20045;-71
2022/09/25 02:54:20;;;;;;;19.27;12.60;;;;;;;7.14;100.00;98204.31;4185967;28;20500;-71
2022/09/25 02:56:47;;;;;;;18.02;12.82;;;;;;;7.15;100.00;98200.41;4186601;28;20468;-71
2022/09/25 02:58:51;;;;;;;24.30;17.33;;;;;;;7.13;100.00;98202.72;4186776;28;20059;-71
2022/09/25 03:00:55;;;;;;;22.73;16.17;;;;;;;7.11;100.00;98197.56;4187688;28;20349;-71
2022/09/25 03:03:02;;;;;;;27.23;19.23;;;;;;;7.12;100.00;98199.19;4186309;28;20044;-71
2022/09/25 03:05:05;;;;;;;24.85;17.75;;;;;;;7.12;100.00;98198.41;4185201;28;20048;-71
2022/09/25 03:07:07;;;;;;;21.17;15.80;;;;;;;7.09;100.00;98196.34;4187424;28;20040;-71
2022/09/25 03:09:09;;;;;;;23.45;15.93;;;;;;;7.10;100.00;98195.19;4187656;28;20436;-71
2022/09/25 03:11:15;;;;;;;20.52;15.32;;;;;;;7.12;100.00;98201.16;4185727;28;20049;-71
2022/09/25 03:13:30;;;;;;;19.08;13.10;;;;;;;7.15;100.00;98198.44;4186265;28;20139;-71
2022/09/25 03:15:31;;;;;;;19.90;13.45;;;;;;;7.21;100.00;98201.72;4187054;28;20130;-71
2022/09/25 03:17:33;;;;;;;18.27;13.75;;;;;;;7.29;100.00;98200.69;4187424;28;20056;-71
2022/09/25 03:19:37;;;;;;;16.30;13.18;;;;;;;7.30;100.00;98192.09;4186105;28;20438;-71
2022/09/25 03:21:37;;;;;;;18.05;12.60;;;;;;;7.36;100.00;98189.00;4186177;28;20048;-71
2022/09/25 03:23:37;;;;;;;17.65;12.60;;;;;;;7.40;99.58;98187.94;4185010;28;20123;-71
2022/09/25 03:25:38;;;;;;;17.50;11.73;;;;;;;7.41;99.92;98195.03;4186694;28;20053;-71
2022/09/25 03:27:39;;;;;;;15.30;11.73;;;;;;;7.40;100.00;98198.16;4186531;28;20052;-71
2022/09/25 03:29:39;;;;;;;15.73;11.40;;;;;;;7.34;100.00;98197.63;4186027;28;20036;-71
2022/09/25 03:31:41;;;;;;;15.68;11.13;;;;;;;7.33;100.00;98194.09;4188185;28;20032;-71
2022/09/25 03:33:43;;;;;;;18.58;11.65;;;;;;;7.35;100.00;98196.47;4186234;28;20423;-71
2022/09/25 03:38:41;;;;;;;16.83;11.00;;;;;;;7.41;99.95;98197.78;4184978;28;20064;-71
2022/09/25 03:40:42;;;;;;;14.35;10.40;;;;;;;7.37;100.00;98191.44;4186946;28;20453;-71
2022/09/25 03:45:40;;;;;;;16.55;11.70;;;;;;;7.28;100.00;98185.31;4186322;28;20056;-71
2022/09/25 03:47:41;;;;;;;17.33;12.65;;;;;;;7.25;100.00;98186.06;4186886;28;20106;-71
2022/09/25 03:49:41;;;;;;;21.10;12.98;;;;;;;7.20;100.00;98187.16;4185318;28;20447;-71
2022/09/25 03:51:41;;;;;;;13.77;11.27;;;;;;;7.21;100.00;98182.47;4185319;28;20036;-71
2022/09/25 03:53:42;;;;;;;18.33;12.70;;;;;;;7.23;100.00;98182.88;4185492;28;20052;-71
2022/09/25 03:55:45;;;;;;;14.65;11.23;;;;;;;7.24;100.00;98188.03;4184642;28;20122;-71
2022/09/25 03:57:46;;;;;;;17.05;11.80;;;;;;;7.31;100.00;98190.91;4185267;28;20527;-71
2022/09/25 03:59:46;;;;;;;19.63;11.93;;;;;;;7.38;100.00;98192.22;4183585;28;20099;-71
2022/09/25 04:01:46;;;;;;;14.82;11.13;;;;;;;7.46;100.00;98192.00;4187483;28;20129;-71
2022/09/25 04:03:48;;;;;;;15.35;11.75;;;;;;;7.49;100.00;98183.00;4184194;28;20080;-71
2022/09/25 04:05:48;;;;;;;15.52;11.77;;;;;;;7.51;100.00;98182.63;4187159;28;20048;-71
2022/09/25 04:10:45;;;;;;;17.38;11.05;;;;;;;7.52;100.00;98175.97;4185905;28;20047;-71
2022/09/25 04:12:46;;;;;;;15.40;10.75;;;;;;;7.52;100.00;98175.97;4186170;28;20037;-71
2022/09/25 04:14:46;;;;;;;17.35;11.70;;;;;;;7.50;100.00;98181.84;4174929;28;20041;-71
2022/09/25 04:16:46;;;;;;;16.02;11.70;;;;;;;7.54;100.00;98176.41;4185269;28;20141;-71
2022/09/25 04:18:47;;;;;;;17.02;11.65;;;;;;;7.55;100.00;98181.53;4185261;28;20400;-71
2022/09/25 04:20:47;;;;;;;19.00;11.68;;;;;;;7.60;100.00;98177.69;4185775;28;20103;-71
2022/09/25 04:22:48;;;;;;;15.40;10.98;;;;;;;7.63;100.00;98179.72;4185727;28;20057;-71
2022/09/25 04:27:45;;;;;;;17.42;11.77;;;;;;;7.64;100.00;98181.31;4185746;28;20052;-71
2022/09/25 04:29:46;;;;;;;15.73;11.48;;;;;;;7.60;100.00;98183.97;4185361;28;20461;-71
2022/09/25 04:33:44;;;;;;;16.45;11.85;;;;;;;7.65;100.00;98187.59;4185529;28;20059;-71
2022/09/25 04:37:06;;;;;;;16.02;11.50;;;;;;;7.64;100.00;98191.53;4185284;28;20447;-71
2022/09/25 04:39:06;;;;;;;16.92;11.80;;;;;;;7.57;100.00;98192.97;4185543;28;20044;-71
2022/09/25 04:41:07;;;;;;;15.82;11.55;;;;;;;7.54;100.00;98190.19;4183836;28;20486;-71
2022/09/25 04:43:07;;;;;;;13.43;10.77;;;;;;;7.53;100.00;98183.06;4184965;28;20139;-71
2022/09/25 04:45:08;;;;;;;17.83;10.93;;;;;;;7.56;100.00;98191.41;4185116;28;20530;-71
2022/09/25 04:47:08;;;;;;;16.17;11.00;;;;;;;7.54;100.00;98184.66;4185088;28;20040;-71
2022/09/25 04:49:08;;;;;;;14.27;10.85;;;;;;;7.53;100.00;98189.38;4184893;28;20424;-71
2022/09/25 04:51:09;;;;;;;15.98;11.43;;;;;;;7.53;100.00;98205.91;4185748;28;20623;-71
2022/09/25 04:53:09;;;;;;;15.65;11.90;;;;;;;7.48;100.00;98192.41;4185011;28;20646;-71
2022/09/25 04:55:09;;;;;;;21.08;13.00;;;;;;;7.47;100.00;98198.28;4185395;28;20219;-71
2022/09/25 04:57:14;;;;;;;15.98;12.23;;;;;;;7.44;100.00;98196.25;4185753;28;20048;-71
2022/09/25 04:59:17;;;;;;;20.88;12.75;;;;;;;7.44;100.00;98202.56;4185296;28;20048;-71
2022/09/25 05:01:19;;;;;;;16.75;12.25;;;;;;;7.44;100.00;98199.00;4185484;28;20130;-71
2022/09/25 05:03:19;;;;;;;13.68;10.57;;;;;;;7.44;100.00;98207.25;4185303;28;20067;-71
2022/09/25 05:05:20;;;;;;;15.05;10.68;;;;;;;7.46;100.00;98200.25;4184917;28;20052;-71
2022/09/25 05:07:20;;;;;;;16.60;11.73;;;;;;;7.49;100.00;98198.72;4188495;28;20072;-71
2022/09/25 05:09:20;;;;;;;15.50;11.45;;;;;;;7.51;100.00;98193.63;4186497;28;20446;-71
2022/09/25 05:11:21;;;;;;;18.30;12.32;;;;;;;7.54;100.00;98195.69;4188230;28;20037;-71
2022/09/25 05:13:22;;;;;;;16.55;11.88;;;;;;;7.56;100.00;98196.91;4188816;28;20080;-71
2022/09/25 05:15:23;;;;;;;15.88;11.27;;;;;;;7.58;100.00;98202.03;4188526;28;20041;-71
2022/09/25 05:17:24;;;;;;;18.05;13.77;;;;;;;7.59;100.00;98203.63;4187843;28;20426;-71
2022/09/25 05:22:30;;;;;;;18.17;13.13;;;;;;;7.66;100.00;98203.75;4188735;28;20087;-71
2022/09/25 05:24:30;;;;;;;19.45;15.00;;;;;;;7.68;100.00;98198.69;4188083;28;20426;-71
2022/09/25 05:26:33;;;;;;;19.77;14.32;;;;;;;7.71;100.00;98208.19;4188088;28;20057;-71
2022/09/25 05:28:33;;;;;;;;;;;;;;;7.73;100.00;98203.09;4188297;28;20175;-71
2022/09/25 05:30:36;;;;;;;20.48;14.10;;;;;;;7.75;100.00;98206.28;4188542;28;19944;-71
2022/09/25 05:32:36;;;;;;;19.35;13.40;;;;;;;7.75;100.00;98198.81;4187844;28;20053;-71
2022/09/25 05:34:37;;;;;;;19.52;13.90;;;;;;;7.79;100.00;98207.94;4187892;28;20522;-71
2022/09/25 05:36:37;;;;;;;18.85;13.38;;;;;;;7.85;100.00;98208.41;4187738;28;20139;-71
2022/09/25 05:38:39;;;;;;;18.85;12.73;;;;;;;7.89;100.00;98209.28;4186314;28;20135;-71
2022/09/25 05:40:39;;;;;;;16.60;12.85;;;;;;;7.91;100.00;98200.66;4188141;28;20571;-71
2022/09/25 05:42:42;;;;;;;17.48;12.13;;;;;;;7.97;100.00;98208.25;4188087;28;20497;-71
2022/09/25 05:44:43;;;;;;;15.95;11.90;;;;;;;8.01;100.00;98208.31;4187927;28;20507;-71
2022/09/25 05:46:43;;;;;;;15.80;11.00;;;;;;;8.07;100.00;98209.59;4187113;28;20423;-71
2022/09/25 05:51:40;;;;;;;16.67;12.23;;;;;;;8.23;100.00;98214.97;4125128;28;20087;-71
2022/09/25 05:53:41;;;;;;;16.58;11.10;;;;;;;8.27;100.00;98218.59;4187684;28;20384;-71
2022/09/25 05:55:41;;;;;;;13.80;10.90;;;;;;;8.33;100.00;98209.63;4186983;28;20044;-71
2022/09/25 05:57:41;;;;;;;17.67;10.95;;;;;;;8.39;99.33;98212.91;4184374;28;20433;-71
2022/09/25 05:59:42;;;;;;;17.00;10.65;;;;;;;8.42;98.73;98210.19;4182856;28;20048;-71
2022/09/25 06:01:42;;;;;;;13.75;10.43;;;;;;;8.47;98.41;98211.06;4181359;28;20051;-71
2022/09/25 06:03:42;;;;;;;15.48;11.32;;;;;;;8.52;98.96;98211.53;4178880;28;20504;-71
2022/09/25 06:05:45;;;;;;;15.43;10.23;;;;;;;8.56;99.92;98209.63;4181968;28;20040;-71
2022/09/25 06:07:51;;;;;;;13.40;10.85;;;;;;;8.59;100.00;98205.31;4178525;28;20072;-71
2022/09/25 06:09:51;;;;;;;12.90;10.88;;;;;;;8.64;100.00;98211.34;4181675;28;20060;-71
2022/09/25 06:11:52;;;;;;;13.85;10.48;;;;;;;8.69;100.00;98210.22;4179058;28;20454;-71
2022/09/25 06:13:54;;;;;;;15.02;10.23;;;;;;;8.70;100.00;98204.34;4179812;28;20458;-71
2022/09/25 06:15:55;;;;;;;15.68;11.20;;;;;;;8.77;99.18;98209.16;4186173;28;20127;-71
2022/09/25 06:17:56;;;;;;;16.80;12.02;;;;;;;8.83;100.00;98207.66;4180752;28;20040;-71
2022/09/25 06:19:56;;;;;;;15.95;11.90;;;;;;;8.85;100.00;98204.50;4180036;28;20044;-71
2022/09/25 06:21:57;;;;;;;14.43;11.52;;;;;;;8.89;100.00;98203.41;4180365;28;20095;-71
2022/09/25 06:23:57;;;;;;;18.98;11.40;;;;;;;8.96;100.00;98213.75;4177055;28;20076;-71
2022/09/25 06:26:05;;;;;;;18.63;13.18;;;;;;;8.99;100.00;98202.75;4176448;28;20064;-71
2022/09/25 06:28:05;;;;;;;15.38;10.48;;;;;;;9.03;100.00;98202.81;4180488;28;20041;-71
2022/09/25 06:30:06;;;;;;;15.82;13.00;;;;;;;9.06;100.00;98201.25;4179805;28;20451;-71
2022/09/25 06:32:06;;;;;;;14.18;11.50;;;;;;;9.13;100.00;98198.59;4182671;28;20036;-71
2022/09/25 06:34:10;;;;;;;15.23;11.43;;;;;;;9.20;100.00;98202.25;4185709;28;20372;-71
2022/09/25 06:36:11;;;;;;;14.63;10.80;;;;;;;9.27;100.00;98207.06;4178928;28;20020;-71
2022/09/25 06:38:12;;;;;;;15.93;11.25;;;;;;;9.34;100.00;98209.09;4185064;28;20296;-71
2022/09/25 06:40:12;;;;;;;13.10;11.10;;;;;;;9.44;100.00;98209.25;4178839;28;20029;-71
2022/09/25 06:42:13;;;;;;;14.60;11.45;;;;;;;9.49;100.00;98208.88;4179821;28;20353;-71
2022/09/25 06:44:13;;;;;;;15.48;11.30;;;;;;;9.59;100.00;98218.47;4177896;28;20183;-72
2022/09/25 06:46:13;;;;;;;14.88;10.48;;;;;;;9.65;100.00;98222.47;4187010;28;20016;-71
2022/09/25 06:48:17;;;;;;;14.10;11.52;;;;;;;9.75;100.00;98218.22;4188113;28;20030;-71
2022/09/25 06:50:17;;;;;;;17.38;11.18;;;;;;;9.81;100.00;98208.44;4186434;28;20467;-71
2022/09/25 06:52:19;;;;;;;14.48;10.95;;;;;;;9.89;100.00;98207.34;4178676;28;20072;-71
2022/09/25 06:54:19;;;;;;;19.75;11.45;;;;;;;9.97;100.00;98213.72;4186662;28;20032;-71
2022/09/25 06:56:20;;;;;;;15.68;11.98;;;;;;;10.04;100.00;98206.31;4186031;28;20419;-71
2022/09/25 06:58:22;;;;;;;18.42;12.52;;;;;;;10.16;100.00;98201.66;4185743;28;20044;-71
2022/09/25 07:00:22;;;;;;;15.40;12.27;;;;;;;10.24;100.00;98211.63;4187117;28;20753;-71
2022/09/25 07:04:42;;;;;;;15.57;12.05;;;;;;;10.34;99.48;98213.69;4186102;28;20380;-71
2022/09/25 07:06:42;;;;;;;14.30;11.65;;;;;;;10.37;99.03;98210.16;4186522;28;20049;-71
2022/09/25 07:08:43;;;;;;;15.48;11.57;;;;;;;10.42;99.22;98209.78;4186233;28;20048;-71
2022/09/25 07:10:51;;;;;;;15.18;11.60;;;;;;;10.42;98.76;98209.78;4172584;28;20045;-71
2022/09/25 07:12:52;;;;;;;16.20;11.95;;;;;;;10.45;98.92;98208.25;4185705;28;20048;-71
2022/09/25 07:14:52;;;;;;;18.30;12.13;;;;;;;10.53;99.16;98215.44;4186754;28;20056;-71
2022/09/25 07:16:52;;;;;;;16.77;12.48;;;;;;;10.60;98.79;98205.22;4187683;28;20503;-71
2022/09/25 07:18:54;;;;;;;16.90;12.68;;;;;;;10.72;99.22;98208.84;4187480;28;20063;-71
2022/09/25 07:21:09;;;;;;;17.98;13.20;;;;;;;10.80;98.85;98202.94;4185833;28;20200;-71
2022/09/25 07:23:10;;;;;;;15.45;12.30;;;;;;;10.81;97.89;98204.53;4187282;28;20052;-71
2022/09/25 07:25:11;;;;;;;17.92;12.07;;;;;;;10.84;97.02;98208.50;4186118;28;20480;-71
2022/09/25 07:27:11;;;;;;;15.63;12.07;;;;;;;10.85;97.51;98199.03;4186628;28;20060;-71
2022/09/25 07:29:12;;;;;;;17.33;11.82;;;;;;;10.91;97.46;98200.25;4186339;28;20498;-71
2022/09/25 07:31:18;;;;;;;18.63;12.60;;;;;;;10.99;96.91;98199.09;4186489;28;20473;-71
2022/09/25 07:33:18;;;;;;;15.73;11.90;;;;;;;11.05;97.69;98197.56;4185267;28;20048;-71
2022/09/25 07:35:19;;;;;;;16.85;12.15;;;;;;;11.09;96.83;98201.16;4186885;28;20045;-71
2022/09/25 07:37:19;;;;;;;16.60;11.68;;;;;;;11.16;96.69;98201.16;4186957;28;20041;-71
2022/09/25 07:39:19;;;;;;;19.30;12.88;;;;;;;11.20;95.93;98204.75;4186292;28;20120;-71
2022/09/25 07:41:23;;;;;;;17.55;12.65;;;;;;;11.23;96.53;98205.94;4186610;28;20086;-71
2022/09/25 07:43:24;;;;;;;20.75;13.45;;;;;;;11.18;96.10;98204.34;4186927;28;20384;-71
2022/09/25 07:45:24;;;;;;;24.05;15.60;;;;;;;11.20;96.06;98196.44;4186653;28;20179;-72
2022/09/25 07:47:24;;;;;;;20.88;13.23;;;;;;;11.27;96.45;98197.66;4186084;28;20078;-71
2022/09/25 07:49:25;;;;;;;19.20;13.95;;;;;;;11.27;96.49;98192.91;4186334;28;20135;-71
2022/09/25 07:51:25;;;;;;;18.02;13.05;;;;;;;11.31;95.05;98193.72;4184141;28;20045;-71
2022/09/25 07:53:25;;;;;;;20.85;13.13;;;;;;;11.36;94.88;98193.34;4186988;28;20310;-71
2022/09/25 07:55:27;;;;;;;20.65;13.20;;;;;;;11.37;94.97;98205.22;4185866;28;20036;-71
2022/09/25 07:57:28;;;;;;;18.92;13.40;;;;;;;11.36;95.02;98187.00;4187670;28;20076;-71
2022/09/25 07:59:29;;;;;;;21.77;14.07;;;;;;;11.33;95.06;98193.31;4186761;28;20544;-71
2022/09/25 08:01:29;;;;;;;22.67;14.40;;;;;;;11.32;95.31;98198.06;4186177;28;20098;-71
2022/09/25 08:03:29;;;;;;;17.08;13.57;;;;;;;11.32;95.74;98197.28;4181538;28;20051;-72
2022/09/25 08:05:29;;;;;;;18.80;13.35;;;;;;;11.35;96.04;98204.81;4178582;28;20056;-71
2022/09/25 08:07:30;;;;;;;18.75;12.07;;;;;;;11.33;95.93;98205.19;4175833;28;20037;-71
2022/09/25 08:09:30;;;;;;;21.92;14.60;;;;;;;11.35;96.03;98202.06;4175350;28;20524;-71
2022/09/25 08:11:32;;;;;;;20.98;14.43;;;;;;;11.34;95.59;98206.81;4179700;28;20037;-72
2022/09/25 08:13:34;;;;;;;19.35;13.55;;;;;;;11.33;94.77;98207.16;4185925;28;20040;-71
2022/09/25 08:15:34;;;;;;;19.63;14.57;;;;;;;11.33;95.18;98207.97;4179617;28;20041;-71
2022/09/25 08:17:35;;;;;;;26.27;16.05;;;;;;;11.39;95.38;98202.84;4182919;28;20467;-71
2022/09/25 08:19:35;;;;;;;20.67;14.30;;;;;;;11.43;96.31;98198.13;4181777;28;20040;-71
2022/09/25 08:21:35;;;;;;;19.13;13.18;;;;;;;11.44;95.77;98208.81;4185682;28;20491;-71
2022/09/25 08:23:36;;;;;;;20.25;13.27;;;;;;;11.45;95.56;98204.84;4182744;28;20046;-72
2022/09/25 08:25:36;;;;;;;19.58;14.00;;;;;;;11.51;95.56;98203.31;4184810;28;20136;-72
2022/09/25 08:27:39;;;;;;;19.67;13.65;;;;;;;11.55;96.56;98208.84;4181954;28;20477;-71
2022/09/25 08:29:40;;;;;;;19.65;12.50;;;;;;;11.64;96.26;98198.19;4181864;28;20052;-71
2022/09/25 08:31:40;;;;;;;19.70;14.13;;;;;;;11.69;96.09;98202.56;4180958;28;20072;-71
2022/09/25 08:33:48;;;;;;;19.98;13.95;;;;;;;11.75;95.80;98209.28;4183051;28;20052;-72
2022/09/25 08:36:00;;;;;;;22.73;14.35;;;;;;;11.81;95.08;98197.47;4178858;28;20131;-72
2022/09/25 08:38:00;;;;;;;21.63;14.40;;;;;;;11.87;95.23;98202.63;4182547;28;20044;-72
2022/09/25 08:40:01;;;;;;;21.50;13.98;;;;;;;11.91;94.63;98197.88;4182516;28;20064;-72
2022/09/25 08:42:01;;;;;;;18.00;12.90;;;;;;;11.94;94.98;98202.63;4172873;28;20080;-72
2022/09/25 08:44:08;;;;;;;20.48;14.35;;;;;;;11.98;94.45;98195.91;4199752;28;20036;-72
2022/09/25 08:49:00;;;;;;;20.00;12.57;;;;;;;12.04;93.61;98182.44;4181672;28;20051;-72
2022/09/25 08:51:04;;;;;;;20.13;13.43;;;;;;;12.08;93.57;98188.78;4183270;28;20127;-72
2022/09/25 08:53:25;;;;;;;20.30;14.25;;;;;;;12.08;92.29;98180.44;4185862;28;20145;-72
2022/09/25 08:57:54;;;;;;;19.80;13.88;;;;;;;12.31;91.99;98189.19;4186109;28;20043;-72
2022/09/25 09:00:00;;;;;;;21.42;15.27;;;;;;;12.43;92.17;98185.22;4185340;28;20366;-71
2022/09/25 09:02:11;;;;;;;20.23;13.60;;;;;;;12.52;90.50;98176.50;4186202;28;20288;-71
2022/09/25 09:04:25;;;;;;;21.42;13.52;;;;;;;12.61;88.35;98186.00;4185240;28;20194;-71
2022/09/25 09:06:27;;;;;;;19.40;12.88;;;;;;;12.68;87.82;98181.63;4186115;28;20276;-71
2022/09/25 09:08:30;;;;;;;18.55;13.20;;;;;;;12.62;86.45;98187.59;4185582;28;20654;-71
2022/09/25 09:10:48;;;;;;;17.30;12.38;;;;;;;12.76;87.04;98194.31;4186008;28;20043;-71
2022/09/25 09:13:14;;;;;;;17.92;12.70;;;;;;;12.90;87.21;98181.16;4185454;28;20068;-71
2022/09/25 09:15:33;;;;;;;18.77;12.25;;;;;;;12.94;85.94;98193.06;4178042;28;20052;-71
2022/09/25 09:17:40;;;;;;;19.58;13.95;;;;;;;12.98;86.54;98190.28;4185762;28;20508;-71
2022/09/25 09:19:41;;;;;;;17.70;13.07;;;;;;;13.03;86.51;98181.53;4185419;28;20084;-71
2022/09/25 09:22:01;;;;;;;23.33;15.35;;;;;;;13.04;86.86;98193.44;4185940;28;20051;-70
2022/09/25 09:24:23;;;;;;;19.48;13.50;;;;;;;13.01;85.76;98183.94;4185543;28;20476;-71
2022/09/25 09:26:53;;;;;;;22.92;16.15;;;;;;;12.95;86.82;98179.97;4185391;28;20047;-72
2022/09/25 09:29:05;;;;;;;21.45;14.45;;;;;;;13.00;86.06;98178.78;4142341;28;20045;-71
2022/09/25 09:32:08;;;;;;;18.90;12.82;;;;;;;13.06;86.56;98182.72;4186213;28;20095;-71
2022/09/25 09:34:33;;;;;;;18.63;14.00;;;;;;;13.10;86.39;98183.50;4080460;28;20291;-71
2022/09/25 09:36:57;;;;;;;19.30;13.52;;;;;;;13.13;86.41;98180.72;4185403;28;20086;-71
2022/09/25 09:39:30;;;;;;;18.08;13.15;;;;;;;13.22;86.49;98174.75;4185667;28;20052;-71
2022/09/25 09:41:43;;;;;;;21.98;14.82;;;;;;;13.37;85.21;98183.84;4186016;28;20127;-71
2022/09/25 09:44:02;;;;;;;18.77;13.05;;;;;;;13.54;85.22;98177.41;4184756;28;20151;-71
2022/09/25 09:46:27;;;;;;;18.48;13.77;;;;;;;13.71;83.87;98176.50;4185489;28;20370;-71
2022/09/25 09:48:59;;;;;;;20.50;14.02;;;;;;;13.83;83.20;98174.47;4185647;28;20041;-72
2022/09/25 09:51:08;;;;;;;19.48;13.27;;;;;;;13.83;82.73;98178.03;4178952;28;20900;-71
2022/09/25 09:53:27;;;;;;;18.55;13.75;;;;;;;13.93;84.19;98179.16;4186614;28;20076;-71
2022/09/25 09:55:39;;;;;;;20.38;12.68;;;;;;;14.03;83.84;98172.72;4189092;28;20045;-71
2022/09/25 09:57:47;;;;;;;20.70;13.70;;;;;;;14.17;81.83;98177.41;4188991;28;20494;-72
2022/09/25 09:59:55;;;;;;;17.95;12.30;;;;;;;14.20;79.00;98166.22;4188417;28;20379;-72
2022/09/25 10:02:01;;;;;;;20.25;14.25;;;;;;;14.18;79.84;98165.88;4187914;28;20532;-72
2022/09/25 10:04:04;;;;;;;18.05;13.02;;;;;;;14.29;78.92;98157.41;4188452;28;20094;-72
2022/09/25 10:06:10;;;;;;;22.92;14.02;;;;;;;14.36;78.83;98159.34;4188775;28;20520;-72
2022/09/25 10:08:11;;;;;;;19.63;14.73;;;;;;;14.41;79.64;98150.56;4188228;28;20066;-72
2022/09/25 10:10:13;;;;;;;20.85;14.80;;;;;;;14.50;80.52;98156.47;4189210;28;20315;-72
2022/09/25 10:12:24;;;;;;;17.55;13.35;;;;;;;14.58;80.68;98146.88;4188177;28;20414;-72